createdAt,value
2022-08-02T00:00:58.831Z,95.10
2022-08-02T00:03:26.533Z,95.00
2022-08-02T00:05:54.675Z,95.10
2022-08-02T00:08:22.746Z,95.10
2022-08-02T00:10:52.715Z,95.10
2022-08-02T00:13:20.399Z,95.20
2022-08-02T00:15:48.114Z,95.20
2022-08-02T00:18:15.851Z,95.20
2022-08-02T00:20:43.503Z,95.20
2022-08-02T00:23:11.429Z,95.30
2022-08-02T00:25:55.603Z,95.30
2022-08-02T00:28:27.199Z,95.30
2022-08-02T00:30:56.026Z,95.40
2022-08-02T00:34:26.389Z,95.40
2022-08-02T00:36:11.323Z,95.40
2022-08-02T00:38:39.036Z,95.30
2022-08-02T00:41:12.147Z,95.40
2022-08-02T00:43:40.219Z,95.50
2022-08-02T00:46:07.859Z,95.60
2022-08-02T00:48:35.806Z,95.60
2022-08-02T00:51:09.235Z,95.70
2022-08-02T00:53:37.722Z,95.80
2022-08-02T00:56:05.445Z,95.80
2022-08-02T00:58:33.454Z,95.80
2022-08-02T01:01:02.019Z,95.90
2022-08-02T01:03:30.085Z,95.90
2022-08-02T01:06:10.950Z,96.00
2022-08-02T01:08:40.099Z,96.00
2022-08-02T01:11:08.006Z,95.90
2022-08-02T01:13:35.938Z,95.90
2022-08-02T01:16:12.901Z,95.90
2022-08-02T01:18:42.814Z,95.90
2022-08-02T01:21:17.954Z,95.90
2022-08-02T01:23:57.835Z,95.90
2022-08-02T01:26:40.984Z,96.00
2022-08-02T01:29:15.265Z,96.00
2022-08-02T01:31:51.185Z,96.20
2022-08-02T01:34:25.708Z,96.20
2022-08-02T01:36:57.222Z,96.10
2022-08-02T01:39:32.289Z,96.10
2022-08-02T01:42:01.942Z,96.20
2022-08-02T01:44:31.644Z,96.20
2022-08-02T01:47:01.023Z,96.20
2022-08-02T01:49:31.118Z,96.20
2022-08-02T01:52:18.435Z,96.10
2022-08-02T01:54:46.862Z,96.20
2022-08-02T01:57:15.450Z,96.20
2022-08-02T01:59:44.515Z,96.20
2022-08-02T02:02:14.810Z,96.20
2022-08-02T02:04:43.563Z,96.30
2022-08-02T02:07:13.443Z,96.30
2022-08-02T02:09:50.155Z,96.40
2022-08-02T02:12:20.670Z,96.50
2022-08-02T02:14:52.038Z,96.60
2022-08-02T02:17:52.044Z,96.60
2022-08-02T02:20:11.127Z,96.60
2022-08-02T02:22:38.751Z,96.60
2022-08-02T02:25:07.396Z,96.50
2022-08-02T02:27:37.186Z,96.50
2022-08-02T02:30:05.815Z,96.60
2022-08-02T02:32:33.864Z,96.70
2022-08-02T02:35:02.902Z,96.70
2022-08-02T02:37:31.578Z,96.80
2022-08-02T02:39:59.552Z,96.90
2022-08-02T02:42:30.116Z,96.90
2022-08-02T02:44:59.044Z,97.00
2022-08-02T02:47:41.281Z,97.00
2022-08-02T02:50:10.834Z,97.10
2022-08-02T02:52:39.582Z,97.10
2022-08-02T02:55:08.852Z,97.20
2022-08-02T02:57:37.401Z,97.20
2022-08-02T03:00:07.351Z,97.20
2022-08-02T03:02:35.728Z,97.20
2022-08-02T03:05:04.360Z,97.30
2022-08-02T03:07:33.382Z,97.30
2022-08-02T03:10:02.063Z,97.30
2022-08-02T03:12:32.234Z,97.30
2022-08-02T03:15:01.949Z,97.40
2022-08-02T03:17:42.913Z,97.30
2022-08-02T03:20:18.106Z,97.40
2022-08-02T03:22:46.227Z,97.40
2022-08-02T03:25:15.157Z,97.40
2022-08-02T03:27:42.900Z,97.40
2022-08-02T03:30:12.089Z,97.40
2022-08-02T03:32:40.706Z,97.50
2022-08-02T03:35:10.096Z,97.50
2022-08-02T03:37:38.477Z,97.60
2022-08-02T03:40:10.707Z,97.70
2022-08-02T03:42:40.231Z,97.70
2022-08-02T03:45:09.564Z,97.80
2022-08-02T03:47:39.134Z,97.80
2022-08-02T03:50:08.574Z,97.90
2022-08-02T03:52:36.997Z,97.90
2022-08-02T03:55:05.215Z,97.90
2022-08-02T03:57:32.972Z,97.90
2022-08-02T04:00:00.608Z,98.00
2022-08-02T04:02:28.593Z,98.00
2022-08-02T04:04:56.227Z,98.10
2022-08-02T04:08:02.634Z,98.10
2022-08-02T04:10:11.983Z,98.10
2022-08-02T04:12:39.600Z,98.10
2022-08-02T04:15:10.157Z,98.20
2022-08-02T04:17:40.040Z,98.30
2022-08-02T04:20:18.917Z,98.20
2022-08-02T04:23:13.180Z,98.30
2022-08-02T04:25:42.777Z,98.30
2022-08-02T04:28:16.767Z,98.40
2022-08-02T04:30:45.957Z,98.40
2022-08-02T04:33:14.049Z,98.50
2022-08-02T04:35:41.798Z,98.50
2022-08-02T04:38:10.707Z,98.50
2022-08-02T04:40:38.994Z,98.50
2022-08-02T04:43:06.674Z,98.60
2022-08-02T04:45:35.031Z,98.70
2022-08-02T04:48:04.873Z,98.70
2022-08-02T04:50:33.285Z,98.80
2022-08-02T04:53:00.942Z,98.90
2022-08-02T04:55:29.775Z,98.90
2022-08-02T04:57:58.518Z,99.00
2022-08-02T05:00:27.521Z,99.00
2022-08-02T05:02:56.921Z,99.00
2022-08-02T05:05:24.551Z,99.10
2022-08-02T05:07:52.370Z,99.20
2022-08-02T05:10:20.387Z,99.10
2022-08-02T05:12:48.007Z,99.20
2022-08-02T05:15:17.946Z,99.20
2022-08-02T05:17:47.963Z,99.30
2022-08-02T05:20:19.655Z,99.40
2022-08-02T05:22:48.065Z,99.40
2022-08-02T05:25:16.030Z,99.50
2022-08-02T05:27:43.675Z,99.50
2022-08-02T05:30:11.765Z,99.70
2022-08-02T05:32:46.782Z,99.70
2022-08-02T05:35:14.498Z,99.60
2022-08-02T05:37:42.963Z,99.70
2022-08-02T05:40:12.940Z,99.80
2022-08-02T05:42:41.673Z,99.90
2022-08-02T05:45:09.506Z,99.90
2022-08-02T05:47:37.696Z,99.90
2022-08-02T05:50:06.870Z,99.90
2022-08-02T05:52:41.659Z,99.90
2022-08-02T05:55:14.118Z,99.90
2022-08-02T05:57:43.307Z,99.90
2022-08-02T06:00:15.157Z,99.90
2022-08-02T06:03:01.570Z,99.90
2022-08-02T06:05:32.994Z,99.90
2022-08-02T06:08:00.858Z,99.90
2022-08-02T06:10:29.978Z,99.90
2022-08-02T06:13:17.938Z,99.90
2022-08-02T06:15:53.206Z,99.90
2022-08-02T06:18:28.055Z,99.90
2022-08-02T06:22:33.027Z,99.90
2022-08-02T06:23:57.595Z,99.90
2022-08-02T06:26:28.050Z,99.90
2022-08-02T06:28:56.422Z,99.90
2022-08-02T06:31:24.679Z,99.90
2022-08-02T06:33:52.331Z,99.90
2022-08-02T06:36:28.720Z,99.90
2022-08-02T06:39:05.595Z,99.90
2022-08-02T06:41:39.408Z,99.90
2022-08-02T06:44:40.724Z,99.90
2022-08-02T06:47:11.272Z,99.90
2022-08-02T06:49:52.436Z,99.90
2022-08-02T06:52:31.541Z,99.90
2022-08-02T06:55:00.365Z,99.90
2022-08-02T06:57:28.801Z,99.90
2022-08-02T06:59:56.893Z,99.90
2022-08-02T07:02:25.142Z,99.90
2022-08-02T07:04:52.779Z,99.90
2022-08-02T07:07:20.729Z,99.90
2022-08-02T07:09:57.201Z,99.90
2022-08-02T07:12:28.911Z,99.90
2022-08-02T07:14:56.909Z,99.90
2022-08-02T07:17:24.528Z,99.90
2022-08-02T07:19:52.141Z,99.90
2022-08-02T07:22:23.024Z,99.90
2022-08-02T07:24:51.251Z,99.90
2022-08-02T07:27:19.323Z,99.90
2022-08-02T07:29:47.549Z,99.90
2022-08-02T07:32:16.353Z,99.90
2022-08-02T07:34:51.184Z,99.90
2022-08-02T07:37:35.486Z,99.90
2022-08-02T07:40:12.478Z,99.90
2022-08-02T07:42:42.562Z,99.90
2022-08-02T07:45:10.683Z,99.90
2022-08-02T07:47:39.254Z,99.90
2022-08-02T07:50:08.186Z,99.90
2022-08-02T07:52:35.870Z,99.90
2022-08-02T07:55:05.823Z,99.90
2022-08-02T07:57:33.906Z,99.90
2022-08-02T08:00:01.530Z,99.90
2022-08-02T08:02:29.154Z,99.80
2022-08-02T08:04:56.807Z,99.60
2022-08-02T08:07:25.355Z,99.50
2022-08-02T08:09:56.446Z,99.50
2022-08-02T08:12:24.562Z,99.10
2022-08-02T08:14:52.254Z,99.00
2022-08-02T08:17:19.923Z,98.80
2022-08-02T08:19:51.400Z,98.60
2022-08-02T08:22:20.400Z,98.50
2022-08-02T08:24:48.632Z,98.60
2022-08-02T08:27:17.338Z,98.40
2022-08-02T08:29:45.267Z,98.40
2022-08-02T08:32:17.448Z,98.30
2022-08-02T08:34:46.215Z,98.30
2022-08-02T08:37:18.266Z,97.90
2022-08-02T08:39:57.409Z,97.90
2022-08-02T08:42:30.456Z,97.80
2022-08-02T08:44:58.876Z,97.50
2022-08-02T08:47:37.319Z,97.30
2022-08-02T08:50:25.865Z,97.30
2022-08-02T08:53:05.604Z,97.20
2022-08-02T08:55:34.121Z,96.80
2022-08-02T08:58:02.362Z,96.90
2022-08-02T09:00:34.039Z,96.60
2022-08-02T09:03:03.696Z,96.30
2022-08-02T09:05:31.447Z,96.40
2022-08-02T09:07:59.338Z,96.30
2022-08-02T09:10:33.137Z,96.30
2022-08-02T09:13:39.122Z,96.00
2022-08-02T09:16:11.092Z,95.90
2022-08-02T09:18:44.060Z,95.50
2022-08-02T09:21:12.467Z,95.40
2022-08-02T09:23:40.891Z,95.10
2022-08-02T09:26:09.395Z,94.80
2022-08-02T09:28:38.367Z,95.10
2022-08-02T09:31:07.434Z,94.40
2022-08-02T09:33:35.726Z,94.00
2022-08-02T09:36:08.358Z,93.90
2022-08-02T09:38:37.262Z,93.70
2022-08-02T09:41:06.051Z,93.60
2022-08-02T09:43:52.448Z,93.30
2022-08-02T09:46:30.263Z,93.00
2022-08-02T09:49:00.505Z,93.00
2022-08-02T09:51:51.611Z,92.60
2022-08-02T09:54:25.123Z,92.00
2022-08-02T09:56:54.867Z,91.80
2022-08-02T09:59:25.194Z,91.50
2022-08-02T10:02:01.829Z,91.40
2022-08-02T10:04:34.439Z,91.10
2022-08-02T10:07:21.709Z,90.90
2022-08-02T10:09:50.161Z,90.90
2022-08-02T10:12:18.344Z,90.90
2022-08-02T10:14:45.980Z,91.00
2022-08-02T10:17:13.603Z,90.90
2022-08-02T10:20:01.899Z,90.50
2022-08-02T10:22:29.420Z,90.50
2022-08-02T10:24:57.076Z,90.50
2022-08-02T10:27:25.928Z,89.80
2022-08-02T10:29:56.047Z,89.60
2022-08-02T10:32:27.544Z,89.10
2022-08-02T10:34:58.224Z,88.70
2022-08-02T10:37:46.914Z,88.70
2022-08-02T10:40:24.318Z,88.20
2022-08-02T10:42:56.048Z,87.60
2022-08-02T10:45:24.154Z,88.50
2022-08-02T10:47:58.578Z,87.20
2022-08-02T10:50:44.861Z,86.70
2022-08-02T10:53:27.917Z,86.50
2022-08-02T10:55:56.736Z,86.50
2022-08-02T10:58:29.405Z,85.10
2022-08-02T11:00:58.821Z,85.90
2022-08-02T11:03:29.521Z,85.60
2022-08-02T11:06:04.629Z,85.80
2022-08-02T11:08:32.370Z,85.30
2022-08-02T11:11:16.749Z,84.80
2022-08-02T11:14:01.859Z,84.30
2022-08-02T11:16:48.280Z,84.30
2022-08-02T11:19:15.878Z,85.30
2022-08-02T11:22:00.650Z,84.70
2022-08-02T11:24:30.527Z,83.50
2022-08-02T11:26:58.858Z,82.60
2022-08-02T11:29:38.353Z,82.40
2022-08-02T11:32:07.547Z,81.70
2022-08-02T11:34:37.439Z,82.00
2022-08-02T11:37:06.259Z,81.60
2022-08-02T11:39:33.935Z,81.80
2022-08-02T11:42:01.968Z,81.90
2022-08-02T11:44:31.075Z,81.60
2022-08-02T11:46:59.928Z,81.20
2022-08-02T11:49:28.511Z,81.60
2022-08-02T11:51:59.313Z,80.50
2022-08-02T11:54:31.864Z,80.20
2022-08-02T11:57:15.596Z,80.50
2022-08-02T11:59:48.205Z,80.40
2022-08-02T12:02:16.688Z,80.60
2022-08-02T12:04:44.764Z,80.20
2022-08-02T12:07:15.002Z,80.80
2022-08-02T12:09:43.641Z,80.20
2022-08-02T12:12:11.582Z,80.60
2022-08-02T12:14:44.393Z,80.70
2022-08-02T12:17:29.427Z,80.70
2022-08-02T12:19:57.566Z,79.10
2022-08-02T12:22:27.754Z,78.40
2022-08-02T12:24:57.142Z,78.60
2022-08-02T12:27:32.169Z,78.30
2022-08-02T12:30:01.747Z,77.20
2022-08-02T12:32:29.541Z,75.50
2022-08-02T12:35:04.991Z,75.70
2022-08-02T12:37:32.878Z,74.80
2022-08-02T12:40:18.422Z,73.60
2022-08-02T12:42:56.301Z,74.00
2022-08-02T12:45:24.714Z,73.90
2022-08-02T12:47:53.351Z,74.20
2022-08-02T12:50:22.547Z,74.60
2022-08-02T12:52:50.486Z,74.00
2022-08-02T12:55:24.283Z,73.60
2022-08-02T12:58:06.199Z,72.30
2022-08-02T13:00:35.867Z,72.70
2022-08-02T13:03:07.277Z,71.90
2022-08-02T13:05:56.912Z,72.40
2022-08-02T13:08:25.056Z,71.30
2022-08-02T13:10:52.976Z,70.10
2022-08-02T13:13:20.613Z,69.60
2022-08-02T13:15:51.393Z,68.00
2022-08-02T13:18:19.245Z,69.20
2022-08-02T13:20:46.892Z,69.60
2022-08-02T13:23:21.066Z,69.00
2022-08-02T13:25:52.736Z,68.30
2022-08-02T13:28:20.954Z,68.70
2022-08-02T13:30:48.878Z,69.20
2022-08-02T13:33:17.199Z,70.30
2022-08-02T13:35:45.956Z,69.60
2022-08-02T13:38:13.737Z,68.00
2022-08-02T13:41:03.866Z,67.20
2022-08-02T13:43:52.618Z,68.10
2022-08-02T13:46:29.444Z,67.20
2022-08-02T13:48:57.542Z,67.40
2022-08-02T13:51:25.309Z,67.60
2022-08-02T13:53:53.510Z,66.40
2022-08-02T13:56:35.396Z,66.00
2022-08-02T13:59:22.008Z,65.20
2022-08-02T14:01:51.880Z,64.90
2022-08-02T14:04:19.550Z,64.30
2022-08-02T14:06:47.147Z,63.50
2022-08-02T14:09:16.758Z,64.00
2022-08-02T14:11:45.567Z,64.20
2022-08-02T14:14:16.629Z,63.00
2022-08-02T14:16:48.129Z,63.20
2022-08-02T14:19:17.362Z,63.60
2022-08-02T14:21:46.316Z,64.10
2022-08-02T14:24:15.148Z,64.30
2022-08-02T14:26:42.862Z,64.30
2022-08-02T14:29:11.423Z,65.90
2022-08-02T14:31:43.481Z,62.90
2022-08-02T14:34:12.195Z,65.20
2022-08-02T14:36:40.161Z,64.30
2022-08-02T14:39:08.028Z,64.60
2022-08-02T14:41:59.423Z,64.30
2022-08-02T14:44:24.752Z,65.70
2022-08-02T14:46:53.126Z,66.50
2022-08-02T14:49:25.484Z,66.20
2022-08-02T14:51:54.891Z,65.30
2022-08-02T14:54:28.286Z,66.30
2022-08-02T14:56:58.671Z,66.50
2022-08-02T14:59:27.097Z,67.00
2022-08-02T15:01:54.991Z,67.40
2022-08-02T15:04:23.080Z,66.40
2022-08-02T15:06:50.721Z,66.40
2022-08-02T15:09:18.778Z,66.70
2022-08-02T15:11:47.457Z,66.40
2022-08-02T15:14:23.372Z,67.90
2022-08-02T15:16:57.179Z,68.10
2022-08-02T15:19:36.901Z,67.70
2022-08-02T15:22:15.866Z,68.40
2022-08-02T15:24:45.211Z,67.90
2022-08-02T15:27:15.057Z,68.50
2022-08-02T15:29:46.902Z,67.50
2022-08-02T15:32:15.224Z,68.10
2022-08-02T15:34:43.239Z,67.90
2022-08-02T15:37:10.894Z,67.60
2022-08-02T15:39:38.574Z,67.30
2022-08-02T15:42:06.239Z,67.60
2022-08-02T15:44:33.893Z,68.60
2022-08-02T15:47:01.578Z,68.30
2022-08-02T15:49:29.209Z,68.30
2022-08-02T15:51:56.872Z,68.10
2022-08-02T15:54:24.679Z,68.20
2022-08-02T15:56:52.278Z,67.80
2022-08-02T15:59:19.896Z,67.60
2022-08-02T16:01:48.586Z,68.30
2022-08-02T16:04:17.040Z,68.40
2022-08-02T16:06:45.016Z,69.30
2022-08-02T16:09:13.170Z,68.80
2022-08-02T16:11:40.843Z,69.10
2022-08-02T16:14:09.531Z,69.50
2022-08-02T16:16:38.962Z,70.10
2022-08-02T16:19:47.734Z,69.90
2022-08-02T16:21:54.774Z,69.50
2022-08-02T16:24:22.845Z,70.50
2022-08-02T16:26:50.598Z,70.70
2022-08-02T16:29:19.678Z,71.00
2022-08-02T16:31:48.139Z,70.60
2022-08-02T16:34:16.522Z,70.20
2022-08-02T16:36:44.323Z,70.20
2022-08-02T16:39:12.225Z,70.00
2022-08-02T16:41:50.650Z,70.00
2022-08-02T16:44:29.569Z,70.10
2022-08-02T16:47:00.933Z,69.90
2022-08-02T16:50:04.025Z,70.40
2022-08-02T16:52:19.578Z,70.00
2022-08-02T16:54:49.682Z,70.00
2022-08-02T16:57:19.997Z,70.30
2022-08-02T16:59:57.281Z,70.50
2022-08-02T17:02:27.934Z,69.70
2022-08-02T17:04:56.706Z,70.40
2022-08-02T17:08:08.156Z,69.90
2022-08-02T17:10:12.437Z,70.50
2022-08-02T17:12:40.397Z,70.70
2022-08-02T17:16:07.677Z,71.00
2022-08-02T17:17:56.566Z,71.10
2022-08-02T17:20:24.607Z,71.20
2022-08-02T17:22:52.920Z,71.60
2022-08-02T17:25:20.800Z,71.60
2022-08-02T17:27:55.695Z,71.60
2022-08-02T17:30:26.786Z,71.50
2022-08-02T17:32:57.528Z,71.80
2022-08-02T17:35:27.246Z,71.80
2022-08-02T17:38:11.264Z,71.60
2022-08-02T17:40:45.595Z,72.00
2022-08-02T17:43:14.536Z,72.40
2022-08-02T17:46:00.696Z,72.30
2022-08-02T17:48:54.961Z,72.40
2022-08-02T17:52:14.797Z,73.10
2022-08-02T17:54:11.297Z,73.20
2022-08-02T17:56:42.522Z,73.50
2022-08-02T17:59:20.219Z,73.80
2022-08-02T18:01:53.087Z,74.00
2022-08-02T18:04:37.853Z,74.30
2022-08-02T18:07:09.398Z,74.60
2022-08-02T18:09:37.752Z,75.00
2022-08-02T18:12:14.009Z,74.90
2022-08-02T18:14:48.698Z,75.20
2022-08-02T18:17:17.600Z,75.50
2022-08-02T18:19:57.390Z,75.60
2022-08-02T18:22:31.191Z,75.80
2022-08-02T18:24:59.252Z,76.40
2022-08-02T18:27:27.142Z,76.10
2022-08-02T18:30:00.230Z,76.40
2022-08-02T18:33:55.982Z,76.60
2022-08-02T18:35:20.138Z,77.00
2022-08-02T18:37:52.187Z,77.60
2022-08-02T18:40:25.084Z,77.80
2022-08-02T18:42:53.929Z,78.30
2022-08-02T18:45:22.124Z,78.70
2022-08-02T18:47:51.299Z,79.50
2022-08-02T18:50:19.552Z,80.70
2022-08-02T18:52:48.683Z,81.20
2022-08-02T18:55:17.595Z,81.50
2022-08-02T18:58:18.049Z,82.40
2022-08-02T19:00:52.120Z,82.70
2022-08-02T19:03:20.068Z,83.30
2022-08-02T19:05:53.699Z,82.60
2022-08-02T19:08:25.396Z,83.20
2022-08-02T19:10:53.770Z,83.60
2022-08-02T19:13:24.212Z,84.00
2022-08-02T19:15:52.245Z,83.90
2022-08-02T19:18:20.069Z,84.00
2022-08-02T19:20:59.565Z,84.30
2022-08-02T19:23:30.644Z,84.40
2022-08-02T19:25:58.541Z,84.20
2022-08-02T19:28:26.795Z,84.90
2022-08-02T19:30:55.740Z,84.90
2022-08-02T19:33:54.257Z,85.20
2022-08-02T19:36:11.715Z,85.20
2022-08-02T19:38:44.025Z,85.40
2022-08-02T19:41:13.711Z,85.60
2022-08-02T19:44:25.925Z,85.80
2022-08-02T19:46:30.964Z,85.70
2022-08-02T19:49:00.305Z,85.30
2022-08-02T19:51:54.581Z,84.80
2022-08-02T19:54:21.024Z,84.40
2022-08-02T19:57:03.831Z,84.50
2022-08-02T19:59:32.194Z,84.60
2022-08-02T20:02:02.030Z,84.50
2022-08-02T20:04:29.700Z,84.30
2022-08-02T20:07:00.027Z,84.60
2022-08-02T20:09:33.260Z,84.70
2022-08-02T20:12:01.463Z,84.80
2022-08-02T20:14:29.259Z,85.20
2022-08-02T20:16:58.663Z,85.40
2022-08-02T20:19:29.647Z,85.60
2022-08-02T20:21:59.815Z,85.80
2022-08-02T20:24:29.338Z,86.40
2022-08-02T20:26:59.045Z,86.60
2022-08-02T20:29:43.340Z,86.60
2022-08-02T20:32:14.481Z,86.70
2022-08-02T20:34:42.733Z,86.80
2022-08-02T20:38:01.009Z,87.00
2022-08-02T20:39:58.436Z,87.80
2022-08-02T20:42:26.847Z,87.60
2022-08-02T20:44:54.896Z,88.00
2022-08-02T20:47:39.449Z,88.20
2022-08-02T20:50:30.654Z,88.40
2022-08-02T20:52:59.858Z,88.70
2022-08-02T20:55:30.848Z,88.90
2022-08-02T20:58:01.712Z,89.10
2022-08-02T21:00:30.097Z,89.30
2022-08-02T21:02:59.325Z,89.30
2022-08-02T21:05:53.923Z,89.30
2022-08-02T21:08:15.474Z,89.40
2022-08-02T21:10:52.312Z,89.80
2022-08-02T21:13:23.650Z,89.90
2022-08-02T21:15:53.057Z,89.80
2022-08-02T21:18:27.697Z,89.60
2022-08-02T21:21:01.382Z,89.70
2022-08-02T21:23:30.215Z,89.80
2022-08-02T21:26:04.519Z,90.10
2022-08-02T21:28:34.959Z,90.30
2022-08-02T21:31:14.988Z,90.50
2022-08-02T21:33:58.066Z,90.70
2022-08-02T21:36:32.240Z,91.00
2022-08-02T21:39:05.166Z,91.20
2022-08-02T21:41:39.800Z,91.40
2022-08-02T21:44:16.208Z,91.70
2022-08-02T21:52:21.144Z,92.30
2022-08-02T21:54:55.576Z,92.50
2022-08-02T21:57:23.924Z,92.60
2022-08-02T21:59:53.063Z,92.90
2022-08-02T22:02:30.909Z,93.30
2022-08-02T22:04:59.095Z,93.70
2022-08-02T22:07:38.064Z,93.70
2022-08-02T22:10:08.897Z,93.80
2022-08-02T22:12:37.246Z,93.80
2022-08-02T22:15:10.362Z,93.70
2022-08-02T22:17:52.996Z,93.20
2022-08-02T22:20:21.588Z,93.10
2022-08-02T22:22:53.322Z,93.20
2022-08-02T22:25:31.514Z,94.20
2022-08-02T22:28:37.311Z,94.40
2022-08-02T22:30:58.249Z,94.70
2022-08-02T22:33:47.094Z,94.90
2022-08-02T22:36:29.937Z,95.20
2022-08-02T22:38:58.155Z,95.70
2022-08-02T22:41:25.853Z,95.80
2022-08-02T22:44:13.770Z,96.00
2022-08-02T22:46:42.578Z,96.00
2022-08-02T22:49:10.797Z,96.30
2022-08-02T22:51:58.475Z,96.40
2022-08-02T22:54:26.437Z,96.60
2022-08-02T22:56:54.310Z,96.70
2022-08-02T22:59:03.437Z,91.90
2022-08-02T22:59:03.541Z,92.00
2022-08-02T22:59:39.369Z,96.90
2022-08-02T23:02:08.109Z,97.40
2022-08-02T23:04:36.799Z,97.30
2022-08-02T23:07:04.878Z,97.30
2022-08-02T23:09:32.560Z,97.50
2022-08-02T23:12:00.449Z,97.50
2022-08-02T23:14:28.227Z,97.60
2022-08-02T23:17:13.662Z,97.70
2022-08-02T23:19:53.650Z,97.90
2022-08-02T23:22:30.145Z,98.00
2022-08-02T23:25:00.845Z,98.10
2022-08-02T23:27:28.804Z,98.20
2022-08-02T23:29:56.487Z,98.30
2022-08-02T23:32:25.676Z,98.20
2022-08-02T23:34:54.664Z,98.30
2022-08-02T23:37:22.529Z,98.40
2022-08-02T23:39:50.269Z,98.50
2022-08-02T23:42:18.284Z,98.50
2022-08-02T23:44:46.305Z,98.80
2022-08-02T23:47:14.052Z,98.40
2022-08-02T23:49:41.813Z,98.10
2022-08-02T23:52:09.652Z,97.90
2022-08-02T23:54:39.086Z,97.90
2022-08-02T23:57:20.528Z,97.90
2022-08-02T23:59:49.924Z,97.90
